Terminal Aerodrome Forecast
Issued by NWS St Louis, MO

Home | Current Version | Previous Version | Graphics & Text | Print | Product List | Glossary On
Versions: 1 2 3 4 5 6 7 8 9 10 11 12 13 14 15 16 17 18 19 20 21 22 23 24 25 26
687
FTUS43 KLSX 252049 AAA
TAFSTL
TAF AMD
KSTL 252049Z 2521/2624 27010KT P6SM SCT050 SCT250
     FM260200 VRB04KT P6SM SCT050 BKN250
     FM261200 10004KT P6SM BKN060=

USA.gov is the U.S. government's official web portal to all federal, state and local government web resources and services.